Time,TemperatureF,DewpointF,PressureIn,WindDirection,WindDirectionDegrees,WindSpeedMPH,WindSpeedGustMPH,Humidity,HourlyPrecipIn,Conditions,Clouds,dailyrainin,SoftwareType,DateUTC
2013-07-30 00:01:00,65.4,59.8,30.04,SSE,150,0.0,1.0,82,0.00,,BKN120,0.00,VWS V14.01,2013-07-30 05:01:00,
2013-07-30 00:06:00,65.4,59.8,30.04,SSE,153,0.0,1.0,82,0.00,,BKN120,0.00,VWS V14.01,2013-07-30 05:06:00,
2013-07-30 00:11:00,65.5,59.5,30.05,SSE,158,1.0,2.0,81,0.00,,BKN120,0.00,VWS V14.01,2013-07-30 05:11:00,
2013-07-30 00:16:00,65.5,59.9,30.04,SE,146,2.0,4.0,82,0.00,,BKN120,0.00,VWS V14.01,2013-07-30 05:16:00,
2013-07-30 00:21:00,65.4,59.8,30.04,SSE,155,0.0,4.0,82,0.00,,BKN120,0.00,VWS V14.01,2013-07-30 05:21:00,
2013-07-30 00:26:00,65.2,59.6,30.04,SSE,166,1.0,4.0,82,0.00,,BKN120,0.00,VWS V14.01,2013-07-30 05:26:00,
2013-07-30 00:31:00,65.2,59.9,30.04,SSE,154,0.0,2.0,83,0.00,,BKN120,0.00,VWS V14.01,2013-07-30 05:31:00,
2013-07-30 00:36:00,65.1,59.8,30.04,SSE,153,0.0,2.0,83,0.00,,BKN110,0.00,VWS V14.01,2013-07-30 05:36:00,
2013-07-30 00:41:00,65.1,59.8,30.03,SE,139,0.0,2.0,83,0.00,,BKN110,0.00,VWS V14.01,2013-07-30 05:41:00,
2013-07-30 00:46:00,65.0,59.7,30.03,SE,146,0.0,2.0,83,0.00,,BKN110,0.00,VWS V14.01,2013-07-30 05:46:00,
2013-07-30 00:51:00,65.0,59.7,30.03,SSE,165,1.0,2.0,83,0.00,,OVC110,0.00,VWS V14.01,2013-07-30 05:51:00,
2013-07-30 00:56:00,65.0,59.7,30.03,SSE,168,1.0,2.0,83,0.00,,OVC110,0.00,VWS V14.01,2013-07-30 05:56:00,
2013-07-30 01:01:00,64.9,59.6,30.03,SSE,163,0.0,2.0,83,0.00,,OVC110,0.00,VWS V14.01,2013-07-30 06:01:00,
2013-07-30 01:06:00,64.9,59.6,30.03,SSE,160,2.0,2.0,83,0.00,,OVC110,0.00,VWS V14.01,2013-07-30 06:06:00,
2013-07-30 01:11:00,64.9,59.6,30.04,SSW,205,0.0,2.0,83,0.00,,OVC110,0.00,VWS V14.01,2013-07-30 06:11:00,
2013-07-30 01:16:00,64.9,59.6,30.04,SSE,165,1.0,2.0,83,0.00,,OVC110,0.00,VWS V14.01,2013-07-30 06:16:00,
2013-07-30 01:21:00,64.9,60.0,30.04,SSW,205,1.0,2.0,84,0.00,,OVC110,0.00,VWS V14.01,2013-07-30 06:21:00,
2013-07-30 01:26:00,64.7,59.8,30.04,WSW,238,1.0,3.0,84,0.00,,OVC110,0.00,VWS V14.01,2013-07-30 06:26:00,
2013-07-30 01:31:00,64.7,60.1,30.04,SW,215,1.0,2.0,85,0.00,,OVC110,0.00,VWS V14.01,2013-07-30 06:31:00,
2013-07-30 01:36:00,64.7,60.1,30.04,WSW,255,0.0,2.0,85,0.00,,OVC100,0.00,VWS V14.01,2013-07-30 06:36:00,
2013-07-30 01:41:00,64.7,60.1,30.04,WSW,245,1.0,3.0,85,0.00,,OVC100,0.00,VWS V14.01,2013-07-30 06:41:00,
2013-07-30 01:46:00,64.6,60.0,30.04,WSW,255,0.0,3.0,85,0.00,,OVC100,0.00,VWS V14.01,2013-07-30 06:46:00,
2013-07-30 01:51:00,64.5,59.9,30.04,WSW,253,0.0,3.0,85,0.00,,OVC100,0.00,VWS V14.01,2013-07-30 06:51:00,
2013-07-30 01:56:00,64.4,60.1,30.04,WSW,253,0.0,3.0,86,0.00,,OVC100,0.00,VWS V14.01,2013-07-30 06:56:00,
2013-07-30 02:01:00,64.3,60.0,30.04,WSW,253,1.0,1.0,86,0.00,,OVC100,0.00,VWS V14.01,2013-07-30 07:01:00,
2013-07-30 02:06:00,64.1,59.8,30.04,WSW,249,1.0,4.0,86,0.00,,OVC100,0.00,VWS V14.01,2013-07-30 07:06:00,
2013-07-30 02:11:00,64.1,60.2,30.04,WSW,252,1.0,4.0,87,0.00,,OVC100,0.00,VWS V14.01,2013-07-30 07:11:00,
2013-07-30 02:16:00,63.9,60.0,30.04,West,259,0.0,4.0,87,0.00,,OVC100,0.00,VWS V14.01,2013-07-30 07:16:00,
2013-07-30 02:21:00,63.8,59.9,30.04,WSW,255,0.0,4.0,87,0.00,,OVC100,0.00,VWS V14.01,2013-07-30 07:21:00,
2013-07-30 02:26:00,63.7,60.1,30.05,WSW,249,1.0,4.0,88,0.00,,OVC100,0.00,VWS V14.01,2013-07-30 07:26:00,
2013-07-30 02:31:00,63.5,59.9,30.05,WSW,250,1.0,2.0,88,0.00,,OVC090,0.00,VWS V14.01,2013-07-30 07:31:00,
2013-07-30 02:36:00,63.5,59.9,30.04,West,271,0.0,2.0,88,0.00,,OVC090,0.00,VWS V14.01,2013-07-30 07:36:00,
2013-07-30 02:41:00,63.4,59.8,30.04,WSW,249,0.0,3.0,88,0.00,,OVC090,0.00,VWS V14.01,2013-07-30 07:41:00,
2013-07-30 02:46:00,63.4,59.8,30.04,SW,232,0.0,3.0,88,0.00,,OVC090,0.00,VWS V14.01,2013-07-30 07:46:00,
2013-07-30 02:51:00,63.3,59.7,30.04,WSW,245,1.0,3.0,88,0.00,,OVC120,0.00,VWS V14.01,2013-07-30 07:51:00,
2013-07-30 02:56:00,63.3,59.7,30.04,WSW,255,0.0,3.0,88,0.00,,OVC090,0.00,VWS V14.01,2013-07-30 07:56:00,
2013-07-30 03:01:00,63.3,59.7,30.04,SW,232,1.0,2.0,88,0.00,,OVC120,0.00,VWS V14.01,2013-07-30 08:01:00,
2013-07-30 03:06:00,63.3,59.7,30.05,SSW,207,1.0,2.0,88,0.00,,OVC120,0.00,VWS V14.01,2013-07-30 08:06:00,
2013-07-30 03:11:00,63.3,59.4,30.05,SW,235,1.0,3.0,87,0.00,,OVC120,0.00,VWS V14.01,2013-07-30 08:11:00,
2013-07-30 03:16:00,63.2,59.3,30.05,SSW,210,1.0,3.0,87,0.00,,OVC120,0.00,VWS V14.01,2013-07-30 08:16:00,
2013-07-30 03:21:00,63.2,59.3,30.05,SW,224,0.0,3.0,87,0.00,,OVC120,0.00,VWS V14.01,2013-07-30 08:21:00,
2013-07-30 03:26:00,62.9,59.0,30.05,SW,224,1.0,3.0,87,0.00,,OVC120,0.00,VWS V14.01,2013-07-30 08:26:00,
2013-07-30 03:31:00,62.6,59.0,30.05,WSW,253,0.0,1.0,88,0.01,,OVC120,0.01,VWS V14.01,2013-07-30 08:31:00,
2013-07-30 03:36:00,62.3,59.0,30.05,SW,215,0.0,1.0,89,0.01,,OVC100,0.01,VWS V14.01,2013-07-30 08:36:00,
2013-07-30 03:41:00,62.0,59.0,30.05,SW,215,0.0,1.0,90,0.02,,OVC100,0.02,VWS V14.01,2013-07-30 08:41:00,
2013-07-30 03:46:00,61.7,58.7,30.04,SW,215,0.0,1.0,90,0.03,,OVC100,0.03,VWS V14.01,2013-07-30 08:46:00,
2013-07-30 03:51:00,61.5,58.8,30.04,SW,215,0.0,1.0,91,0.05,,OVC110,0.05,VWS V14.01,2013-07-30 08:51:00,
2013-07-30 03:56:00,61.3,58.7,30.04,SW,214,0.0,1.0,91,0.06,,OVC110,0.06,VWS V14.01,2013-07-30 08:56:00,
2013-07-30 04:01:00,61.0,58.7,30.05,SW,214,0.0,0.0,92,0.06,,OVC110,0.06,VWS V14.01,2013-07-30 09:01:00,
2013-07-30 04:06:00,60.8,58.5,30.05,SW,215,0.0,0.0,92,0.08,,OVC110,0.08,VWS V14.01,2013-07-30 09:06:00,
2013-07-30 04:11:00,60.5,58.2,30.05,SW,215,0.0,0.0,92,0.09,,OVC110,0.09,VWS V14.01,2013-07-30 09:11:00,
2013-07-30 04:16:00,60.3,58.0,30.05,SW,215,0.0,0.0,92,0.10,,OVC110,0.10,VWS V14.01,2013-07-30 09:16:00,
2013-07-30 04:21:00,60.2,58.2,30.05,SW,215,0.0,0.0,93,0.10,,OVC110,0.10,VWS V14.01,2013-07-30 09:21:00,
2013-07-30 04:26:00,60.2,58.2,30.05,SW,215,0.0,0.0,93,0.12,,OVC110,0.12,VWS V14.01,2013-07-30 09:26:00,
2013-07-30 04:31:00,60.1,58.4,30.05,SW,216,0.0,0.0,94,0.12,,OVC110,0.12,VWS V14.01,2013-07-30 09:31:00,
2013-07-30 04:36:00,60.1,58.4,30.05,SW,215,0.0,0.0,94,0.12,,OVC110,0.12,VWS V14.01,2013-07-30 09:36:00,
2013-07-30 04:41:00,60.0,58.3,30.05,SSE,162,0.0,1.0,94,0.12,,OVC110,0.12,VWS V14.01,2013-07-30 09:41:00,
2013-07-30 04:46:00,60.1,58.7,30.05,SSE,161,0.0,1.0,95,0.12,,OVC110,0.12,VWS V14.01,2013-07-30 09:46:00,
2013-07-30 04:51:00,60.0,58.6,30.05,SSE,160,0.0,1.0,95,0.12,,OVC050,0.12,VWS V14.01,2013-07-30 09:51:00,
2013-07-30 04:56:00,59.9,58.5,30.05,ESE,107,0.0,1.0,95,0.12,,OVC050,0.12,VWS V14.01,2013-07-30 09:56:00,
2013-07-30 05:01:00,59.9,58.5,30.05,East,101,1.0,1.0,95,0.06,,OVC050,0.12,VWS V14.01,2013-07-30 10:01:00,
2013-07-30 05:06:00,59.8,58.4,30.05,East,99,1.0,2.0,95,0.06,,OVC050,0.12,VWS V14.01,2013-07-30 10:06:00,
2013-07-30 05:11:00,59.8,58.4,30.05,East,89,2.0,3.0,95,0.06,,OVC050,0.12,VWS V14.01,2013-07-30 10:11:00,
2013-07-30 05:16:00,59.7,58.3,30.05,East,91,2.0,4.0,95,0.07,,OVC050,0.13,VWS V14.01,2013-07-30 10:16:00,
2013-07-30 05:21:00,59.6,58.2,30.05,East,100,1.0,4.0,95,0.07,,OVC050,0.13,VWS V14.01,2013-07-30 10:21:00,
2013-07-30 05:26:00,59.6,58.2,30.05,East,95,2.0,4.0,95,0.07,,OVC050,0.13,VWS V14.01,2013-07-30 10:26:00,
2013-07-30 05:31:00,59.6,58.2,30.05,ESE,104,2.0,4.0,95,0.01,,OVC050,0.13,VWS V14.01,2013-07-30 10:31:00,
2013-07-30 05:36:00,59.7,58.3,30.05,ESE,113,0.0,4.0,95,0.01,,OVC050,0.13,VWS V14.01,2013-07-30 10:36:00,
2013-07-30 05:41:00,59.7,58.3,30.05,ESE,110,0.0,4.0,95,0.02,,OVC050,0.14,VWS V14.01,2013-07-30 10:41:00,
2013-07-30 05:46:00,59.7,58.6,30.05,East,100,1.0,4.0,96,0.02,,OVC050,0.14,VWS V14.01,2013-07-30 10:46:00,
2013-07-30 05:51:00,59.7,58.6,30.05,East,95,3.0,4.0,96,0.02,,OVC050,0.14,VWS V14.01,2013-07-30 10:51:00,
2013-07-30 05:56:00,59.7,58.6,30.05,ESE,107,1.0,4.0,96,0.02,,OVC050,0.14,VWS V14.01,2013-07-30 10:56:00,
2013-07-30 06:01:00,59.8,58.7,30.06,ESE,110,0.0,1.0,96,0.02,,OVC050,0.14,VWS V14.01,2013-07-30 11:01:00,
2013-07-30 06:06:00,59.8,58.7,30.05,ESE,117,2.0,3.0,96,0.03,,OVC050,0.15,VWS V14.01,2013-07-30 11:06:00,
2013-07-30 06:11:00,59.8,58.7,30.05,ESE,109,2.0,4.0,96,0.03,,OVC050,0.15,VWS V14.01,2013-07-30 11:11:00,
2013-07-30 06:16:00,59.8,58.7,30.05,ESE,107,1.0,4.0,96,0.03,,OVC050,0.15,VWS V14.01,2013-07-30 11:16:00,
2013-07-30 06:21:00,59.9,58.8,30.05,ESE,113,1.0,4.0,96,0.03,,OVC050,0.15,VWS V14.01,2013-07-30 11:21:00,
2013-07-30 06:26:00,59.9,58.8,30.05,ESE,117,1.0,4.0,96,0.03,,OVC050,0.15,VWS V14.01,2013-07-30 11:26:00,
2013-07-30 06:31:00,59.9,58.8,30.05,ESE,110,1.0,3.0,96,0.02,,OVC050,0.15,VWS V14.01,2013-07-30 11:31:00,
2013-07-30 06:36:00,60.0,58.9,30.05,ESE,107,1.0,3.0,96,0.02,,OVC050,0.15,VWS V14.01,2013-07-30 11:36:00,
2013-07-30 06:41:00,60.0,59.2,30.06,ESE,113,1.0,3.0,97,0.02,,OVC050,0.15,VWS V14.01,2013-07-30 11:41:00,
2013-07-30 06:46:00,60.0,59.2,30.06,East,95,2.0,3.0,97,0.02,,OVC050,0.15,VWS V14.01,2013-07-30 11:46:00,
2013-07-30 06:51:00,60.0,59.2,30.06,East,86,2.0,3.0,97,0.02,,OVC050,0.15,VWS V14.01,2013-07-30 11:51:00,
2013-07-30 06:56:00,60.1,59.2,30.06,East,79,1.0,3.0,97,0.02,,OVC050,0.15,VWS V14.01,2013-07-30 11:56:00,
2013-07-30 07:01:00,60.1,59.2,30.06,East,100,2.0,3.0,97,0.01,,OVC050,0.15,VWS V14.01,2013-07-30 12:01:00,
2013-07-30 07:06:00,60.2,59.3,30.06,East,95,2.0,3.0,97,0.01,,OVC050,0.15,VWS V14.01,2013-07-30 12:06:00,
2013-07-30 07:11:00,60.2,59.3,30.06,ENE,77,2.0,3.0,97,0.01,,OVC050,0.15,VWS V14.01,2013-07-30 12:11:00,
2013-07-30 07:16:00,60.2,59.3,30.06,East,98,1.0,3.0,97,0.01,,OVC050,0.15,VWS V14.01,2013-07-30 12:16:00,
2013-07-30 07:21:00,60.2,59.3,30.07,ESE,102,1.0,3.0,97,0.01,,OVC050,0.15,VWS V14.01,2013-07-30 12:21:00,
2013-07-30 07:26:00,60.3,59.5,30.07,East,100,0.0,3.0,97,0.01,,OVC050,0.15,VWS V14.01,2013-07-30 12:26:00,
2013-07-30 07:31:00,60.3,59.5,30.07,East,99,0.0,1.0,97,0.00,,OVC050,0.15,VWS V14.01,2013-07-30 12:31:00,
2013-07-30 07:36:00,60.3,59.5,30.07,East,96,0.0,1.0,97,0.01,,OVC046,0.16,VWS V14.01,2013-07-30 12:36:00,
2013-07-30 07:41:00,60.4,59.5,30.07,East,94,1.0,2.0,97,0.02,,OVC046,0.17,VWS V14.01,2013-07-30 12:41:00,
2013-07-30 07:46:00,60.4,59.5,30.07,ESE,103,0.0,2.0,97,0.02,,OVC046,0.17,VWS V14.01,2013-07-30 12:46:00,
2013-07-30 07:51:00,60.4,59.5,30.07,East,99,1.0,2.0,97,0.02,,OVC037,0.17,VWS V14.01,2013-07-30 12:51:00,
2013-07-30 07:56:00,60.4,59.5,30.06,ESE,108,1.0,2.0,97,0.02,,OVC037,0.17,VWS V14.01,2013-07-30 12:56:00,
2013-07-30 08:01:00,60.5,59.7,30.06,ESE,107,1.0,1.0,97,0.02,,OVC037,0.17,VWS V14.01,2013-07-30 13:01:00,
2013-07-30 08:06:00,60.6,59.8,30.06,ESE,107,1.0,1.0,97,0.02,,OVC037,0.17,VWS V14.01,2013-07-30 13:06:00,
2013-07-30 08:11:00,60.7,59.8,30.06,ESE,109,1.0,1.0,97,0.02,,OVC037,0.17,VWS V14.01,2013-07-30 13:11:00,
2013-07-30 08:16:00,60.6,59.8,30.06,ESE,110,0.0,1.0,97,0.02,,OVC037,0.17,VWS V14.01,2013-07-30 13:16:00,
2013-07-30 08:21:00,60.7,59.8,30.06,ESE,113,0.0,2.0,97,0.02,,OVC037,0.17,VWS V14.01,2013-07-30 13:21:00,
2013-07-30 08:26:00,60.7,59.8,30.06,ESE,116,1.0,2.0,97,0.02,,OVC037,0.17,VWS V14.01,2013-07-30 13:26:00,
2013-07-30 08:31:00,60.8,60.0,30.06,ESE,116,0.0,1.0,97,0.02,,OVC037,0.17,VWS V14.01,2013-07-30 13:31:00,
2013-07-30 08:36:00,61.1,60.2,30.06,ESE,110,0.0,2.0,97,0.02,,OVC050,0.17,VWS V14.01,2013-07-30 13:36:00,
2013-07-30 08:41:00,61.2,60.3,30.05,ESE,115,0.0,2.0,97,0.02,,OVC050,0.17,VWS V14.01,2013-07-30 13:41:00,
2013-07-30 08:46:00,61.3,60.4,30.05,ESE,114,1.0,2.0,97,0.02,,OVC050,0.17,VWS V14.01,2013-07-30 13:46:00,
2013-07-30 08:51:00,61.4,60.5,30.05,ESE,102,1.0,2.0,97,0.02,,-RA,0.17,VWS V14.01,2013-07-30 13:51:00,
2013-07-30 08:56:00,61.4,60.5,30.05,SE,134,1.0,3.0,97,0.02,,OVC034,0.17,VWS V14.01,2013-07-30 13:56:00,
2013-07-30 09:01:00,61.5,60.6,30.05,ESE,120,2.0,2.0,97,0.00,,-RA,0.17,VWS V14.01,2013-07-30 14:01:00,
2013-07-30 09:06:00,61.6,60.7,30.05,ESE,103,2.0,2.0,97,0.00,,-RA,0.17,VWS V14.01,2013-07-30 14:06:00,
2013-07-30 09:11:00,61.8,60.9,30.05,SSE,155,0.0,4.0,97,0.00,,-RA,0.17,VWS V14.01,2013-07-30 14:11:00,
2013-07-30 09:16:00,61.7,60.8,30.06,ESE,116,1.0,4.0,97,0.00,,OVC034,0.17,VWS V14.01,2013-07-30 14:16:00,
2013-07-30 09:22:00,61.8,60.9,30.05,ESE,117,1.0,4.0,97,0.00,,-RA,0.17,VWS V14.01,2013-07-30 14:22:00,
2013-07-30 09:27:00,61.9,61.0,30.06,ESE,112,0.0,4.0,97,0.00,,-RA,0.17,VWS V14.01,2013-07-30 14:27:00,
2013-07-30 09:32:00,61.9,61.0,30.05,ESE,112,1.0,2.0,97,0.00,,-RA,0.17,VWS V14.01,2013-07-30 14:32:00,
2013-07-30 09:37:00,62.0,60.8,30.05,ESE,108,1.0,3.0,96,0.00,,-RA,0.17,VWS V14.01,2013-07-30 14:37:00,
2013-07-30 09:42:00,62.0,60.8,30.05,ESE,115,1.0,3.0,96,0.00,,-RA,0.17,VWS V14.01,2013-07-30 14:42:00,
2013-07-30 09:47:00,62.0,60.8,30.05,SE,131,1.0,3.0,96,0.00,,-RA,0.17,VWS V14.01,2013-07-30 14:47:00,
2013-07-30 09:52:00,62.1,61.0,30.05,ESE,103,1.0,3.0,96,0.00,,-RA,0.17,VWS V14.01,2013-07-30 14:52:00,
2013-07-30 09:57:00,62.1,61.0,30.05,ESE,122,0.0,3.0,96,0.00,,-RA,0.17,VWS V14.01,2013-07-30 14:57:00,
2013-07-30 10:02:00,62.2,61.0,30.05,ESE,107,1.0,4.0,96,0.00,,-RA,0.17,VWS V14.01,2013-07-30 15:02:00,
2013-07-30 10:07:00,62.5,61.3,30.05,ESE,120,1.0,4.0,96,0.00,,-RA,0.17,VWS V14.01,2013-07-30 15:07:00,
2013-07-30 10:12:00,62.8,61.7,30.05,ESE,121,0.0,4.0,96,0.00,,-RA,0.17,VWS V14.01,2013-07-30 15:12:00,
2013-07-30 10:17:00,63.0,61.5,30.05,ESE,116,3.0,4.0,95,0.00,,-RA,0.17,VWS V14.01,2013-07-30 15:17:00,
2013-07-30 10:22:00,63.1,61.7,30.05,ESE,113,1.0,4.0,95,0.00,,-RA,0.17,VWS V14.01,2013-07-30 15:22:00,
2013-07-30 10:27:00,63.2,61.8,30.05,East,100,1.0,4.0,95,0.00,,-RA,0.17,VWS V14.01,2013-07-30 15:27:00,
2013-07-30 10:32:00,63.1,61.3,30.05,SSE,156,5.0,5.0,94,0.00,,-RA,0.17,VWS V14.01,2013-07-30 15:32:00,
2013-07-30 10:37:00,63.2,61.5,30.04,ESE,115,0.0,5.0,94,0.00,,-RA,0.17,VWS V14.01,2013-07-30 15:37:00,
2013-07-30 10:42:00,63.4,61.7,30.05,South,184,1.0,5.0,94,0.00,,-RA,0.17,VWS V14.01,2013-07-30 15:42:00,
2013-07-30 10:47:00,63.4,61.7,30.05,SE,139,0.0,5.0,94,0.00,,-RA,0.17,VWS V14.01,2013-07-30 15:47:00,
2013-07-30 10:52:00,63.4,61.3,30.05,ESE,117,2.0,5.0,93,0.00,,-RA,0.17,VWS V14.01,2013-07-30 15:52:00,
2013-07-30 10:57:00,63.4,61.3,30.05,ESE,106,1.0,5.0,93,0.00,,-RA,0.17,VWS V14.01,2013-07-30 15:57:00,
2013-07-30 11:02:00,63.6,61.5,30.04,SE,134,0.0,2.0,93,0.00,,-RA,0.17,VWS V14.01,2013-07-30 16:02:00,
2013-07-30 11:07:00,64.0,61.9,30.04,SE,128,1.0,3.0,93,0.00,,-RA,0.17,VWS V14.01,2013-07-30 16:07:00,
2013-07-30 11:12:00,64.3,62.2,30.04,SSE,158,1.0,3.0,93,0.00,,-RA,0.17,VWS V14.01,2013-07-30 16:12:00,
2013-07-30 11:17:00,64.6,62.2,30.04,SE,138,0.0,3.0,92,0.00,,-RA,0.17,VWS V14.01,2013-07-30 16:17:00,
2013-07-30 11:22:00,64.8,62.4,30.05,SE,136,1.0,4.0,92,0.00,,-RA,0.17,VWS V14.01,2013-07-30 16:22:00,
2013-07-30 11:27:00,64.8,61.8,30.05,ESE,115,1.0,5.0,90,0.00,,-RA,0.17,VWS V14.01,2013-07-30 16:27:00,
2013-07-30 11:32:00,64.9,62.2,30.05,ESE,110,0.0,2.0,91,0.00,,-RA,0.17,VWS V14.01,2013-07-30 16:32:00,
2013-07-30 11:37:00,65.1,62.4,30.04,ESE,110,2.0,3.0,91,0.00,,-RA,0.17,VWS V14.01,2013-07-30 16:37:00,
2013-07-30 11:42:00,65.2,62.2,30.04,SE,142,1.0,3.0,90,0.00,,-RA,0.17,VWS V14.01,2013-07-30 16:42:00,
2013-07-30 11:47:00,65.5,62.8,30.04,SSE,147,0.0,3.0,91,0.00,,-RA,0.17,VWS V14.01,2013-07-30 16:47:00,
2013-07-30 11:52:00,65.7,62.7,30.04,South,176,1.0,3.0,90,0.00,,-RA,0.17,VWS V14.01,2013-07-30 16:52:00,
2013-07-30 11:57:00,65.7,62.7,30.04,SSW,200,1.0,3.0,90,0.00,,-RA,0.17,VWS V14.01,2013-07-30 16:57:00,
2013-07-30 12:02:00,65.8,62.8,30.04,SSE,147,0.0,2.0,90,0.00,,-RA,0.17,VWS V14.01,2013-07-30 17:02:00,
2013-07-30 12:07:00,66.0,63.0,30.04,East,89,1.0,3.0,90,0.00,,-RA,0.17,VWS V14.01,2013-07-30 17:07:00,
2013-07-30 12:12:00,66.0,62.7,30.04,SE,142,0.0,3.0,89,0.00,,-RA,0.17,VWS V14.01,2013-07-30 17:12:00,
2013-07-30 12:17:00,66.0,62.7,30.04,ESE,116,1.0,4.0,89,0.00,,-RA,0.17,VWS V14.01,2013-07-30 17:17:00,
2013-07-30 12:22:00,66.2,62.9,30.04,SE,125,0.0,4.0,89,0.00,,-RA,0.17,VWS V14.01,2013-07-30 17:22:00,
2013-07-30 12:27:00,66.3,63.0,30.04,SE,138,0.0,4.0,89,0.00,,-RA,0.17,VWS V14.01,2013-07-30 17:27:00,
2013-07-30 12:32:00,66.4,62.7,30.04,ESE,117,0.0,2.0,88,0.00,,-RA,0.17,VWS V14.01,2013-07-30 17:32:00,
2013-07-30 12:37:00,66.4,62.7,30.04,ESE,120,0.0,2.0,88,0.00,,-RA,0.17,VWS V14.01,2013-07-30 17:37:00,
2013-07-30 12:42:00,66.7,63.4,30.04,SE,143,0.0,2.0,89,0.00,,-RA,0.17,VWS V14.01,2013-07-30 17:42:00,
2013-07-30 12:47:00,66.9,63.2,30.04,SE,145,1.0,2.0,88,0.00,,-RA,0.17,VWS V14.01,2013-07-30 17:47:00,
2013-07-30 12:52:00,66.9,62.9,30.04,ESE,117,0.0,2.0,87,0.00,,-RA,0.17,VWS V14.01,2013-07-30 17:52:00,
2013-07-30 12:57:00,66.9,63.2,30.04,SSE,156,0.0,0.0,88,0.00,,-RA,0.17,VWS V14.01,2013-07-30 17:57:00,
2013-07-30 13:02:00,67.0,63.0,30.03,SSW,194,0.0,2.0,87,0.00,,-RA,0.17,VWS V14.01,2013-07-30 18:02:00,
2013-07-30 13:07:00,67.2,63.5,30.03,South,169,0.0,2.0,88,0.00,,-RA,0.17,VWS V14.01,2013-07-30 18:07:00,
2013-07-30 13:12:00,67.1,62.8,30.03,WSW,239,1.0,2.0,86,0.00,,-RA,0.17,VWS V14.01,2013-07-30 18:12:00,
2013-07-30 13:18:00,67.2,63.2,30.03,WSW,248,0.0,2.0,87,0.00,,-RA,0.17,VWS V14.01,2013-07-30 18:18:00,
2013-07-30 13:23:00,67.3,63.0,30.03,SSW,207,0.0,3.0,86,0.00,,-RA,0.17,VWS V14.01,2013-07-30 18:23:00,
2013-07-30 13:28:00,67.8,63.5,30.03,SE,131,0.0,0.0,86,0.00,,-RA,0.17,VWS V14.01,2013-07-30 18:28:00,
2013-07-30 13:33:00,68.0,63.3,30.03,SSW,200,1.0,2.0,85,0.00,,-RA,0.17,VWS V14.01,2013-07-30 18:33:00,
2013-07-30 13:38:00,67.9,62.9,30.03,South,177,0.0,3.0,84,0.00,,-RA,0.17,VWS V14.01,2013-07-30 18:38:00,
2013-07-30 13:43:00,68.0,63.3,30.03,SSE,161,0.0,3.0,85,0.00,,-RA,0.17,VWS V14.01,2013-07-30 18:43:00,
2013-07-30 13:48:00,68.0,63.0,30.03,SSE,165,1.0,4.0,84,0.00,,-RA,0.17,VWS V14.01,2013-07-30 18:48:00,
2013-07-30 13:53:00,68.0,63.7,30.03,SSW,207,0.0,4.0,86,0.00,,-RA,0.17,VWS V14.01,2013-07-30 18:53:00,
2013-07-30 13:58:00,68.1,63.4,30.03,SSW,210,0.0,1.0,85,0.00,,-RA,0.17,VWS V14.01,2013-07-30 18:58:00,
2013-07-30 14:03:00,68.0,63.3,30.03,SW,232,1.0,2.0,85,0.00,,-RA,0.17,VWS V14.01,2013-07-30 19:03:00,
2013-07-30 14:08:00,67.9,63.2,30.03,SW,229,1.0,2.0,85,0.00,,-RA,0.17,VWS V14.01,2013-07-30 19:08:00,
2013-07-30 14:13:00,67.9,63.6,30.03,SSW,200,0.0,2.0,86,0.00,,-RA,0.17,VWS V14.01,2013-07-30 19:13:00,
2013-07-30 14:18:00,68.0,63.3,30.03,SSW,193,0.0,2.0,85,0.00,,-RA,0.17,VWS V14.01,2013-07-30 19:18:00,
2013-07-30 14:23:00,68.1,63.8,30.03,South,191,0.0,2.0,86,0.00,,-RA,0.17,VWS V14.01,2013-07-30 19:23:00,
2013-07-30 14:28:00,68.2,63.5,30.03,South,191,0.0,0.0,85,0.00,,-RA,0.17,VWS V14.01,2013-07-30 19:28:00,
2013-07-30 14:33:00,68.5,63.8,30.03,WNW,285,1.0,1.0,85,0.00,,-RA,0.17,VWS V14.01,2013-07-30 19:33:00,
2013-07-30 14:38:00,68.7,64.0,30.02,West,280,0.0,2.0,85,0.00,,-RA,0.17,VWS V14.01,2013-07-30 19:38:00,
2013-07-30 14:43:00,68.6,63.9,30.02,SW,217,1.0,2.0,85,0.00,,-RA,0.17,VWS V14.01,2013-07-30 19:43:00,
2013-07-30 14:48:00,68.6,63.6,30.02,WSW,256,0.0,2.0,84,0.00,,-RA,0.17,VWS V14.01,2013-07-30 19:48:00,
2013-07-30 14:53:00,68.3,63.6,30.02,WSW,250,0.0,4.0,85,0.00,,-RA,0.17,VWS V14.01,2013-07-30 19:53:00,
2013-07-30 14:58:00,68.2,63.9,30.02,West,259,1.0,2.0,86,0.00,,-RA,0.17,VWS V14.01,2013-07-30 19:58:00,
2013-07-30 15:03:00,68.1,63.8,30.02,WSW,257,0.0,2.0,86,0.00,,-RA,0.17,VWS V14.01,2013-07-30 20:03:00,
2013-07-30 15:08:00,68.2,63.9,30.02,SW,236,0.0,2.0,86,0.00,,-RA,0.17,VWS V14.01,2013-07-30 20:08:00,
2013-07-30 15:13:00,68.1,63.4,30.02,West,274,0.0,2.0,85,0.00,,-RA,0.17,VWS V14.01,2013-07-30 20:13:00,
2013-07-30 15:18:00,68.3,64.3,30.02,West,274,0.0,2.0,87,0.00,,-RA,0.17,VWS V14.01,2013-07-30 20:18:00,
2013-07-30 15:23:00,68.6,64.6,30.02,West,274,0.0,2.0,87,0.00,,-RA,0.17,VWS V14.01,2013-07-30 20:23:00,
2013-07-30 15:28:00,68.7,64.3,30.02,West,270,0.0,0.0,86,0.00,,-RA,0.17,VWS V14.01,2013-07-30 20:28:00,
2013-07-30 15:33:00,68.9,64.6,30.02,West,270,0.0,1.0,86,0.00,,-RA,0.17,VWS V14.01,2013-07-30 20:33:00,
2013-07-30 15:38:00,69.4,64.7,30.02,West,269,0.0,1.0,85,0.00,,-RA,0.17,VWS V14.01,2013-07-30 20:38:00,
2013-07-30 15:43:00,69.9,64.8,30.02,West,270,0.0,1.0,84,0.00,,-RA,0.17,VWS V14.01,2013-07-30 20:43:00,
2013-07-30 15:48:00,70.1,64.4,30.02,ESE,103,0.0,1.0,82,0.00,,-RA,0.17,VWS V14.01,2013-07-30 20:48:00,
2013-07-30 15:53:00,70.1,64.4,30.02,East,85,2.0,2.0,82,0.00,,-RA,0.17,VWS V14.01,2013-07-30 20:53:00,
2013-07-30 15:58:00,69.9,64.2,30.02,East,97,0.0,0.0,82,0.00,,-RA,0.17,VWS V14.01,2013-07-30 20:58:00,
2013-07-30 16:03:00,70.0,64.6,30.02,ESE,103,0.0,1.0,83,0.00,,-RA,0.17,VWS V14.01,2013-07-30 21:03:00,
2013-07-30 16:08:00,70.1,64.4,30.01,SSW,197,0.0,1.0,82,0.00,,-RA,0.17,VWS V14.01,2013-07-30 21:08:00,
2013-07-30 16:13:00,70.1,64.7,30.01,SSE,164,0.0,2.0,83,0.00,,-RA,0.17,VWS V14.01,2013-07-30 21:13:00,
2013-07-30 16:18:00,70.3,64.9,30.01,SSE,163,1.0,2.0,83,0.00,,-RA,0.17,VWS V14.01,2013-07-30 21:18:00,
2013-07-30 16:23:00,70.4,64.3,30.01,SSE,165,0.0,2.0,81,0.00,,-RA,0.17,VWS V14.01,2013-07-30 21:23:00,
2013-07-30 16:28:00,70.4,64.3,30.01,SSW,203,0.0,0.0,81,0.00,,-RA,0.17,VWS V14.01,2013-07-30 21:28:00,
2013-07-30 16:33:00,70.4,64.7,30.02,SW,217,0.0,1.0,82,0.00,,-RA,0.17,VWS V14.01,2013-07-30 21:33:00,
2013-07-30 16:38:00,70.3,64.6,30.02,SW,218,0.0,1.0,82,0.00,,-RA,0.17,VWS V14.01,2013-07-30 21:38:00,
2013-07-30 16:43:00,70.3,64.9,30.02,SW,218,0.0,1.0,83,0.00,,-RA,0.17,VWS V14.01,2013-07-30 21:43:00,
2013-07-30 16:48:00,70.3,64.9,30.02,SW,218,0.0,1.0,83,0.00,,-RA,0.17,VWS V14.01,2013-07-30 21:48:00,
2013-07-30 16:53:00,70.0,64.6,30.02,West,281,0.0,1.0,83,0.00,,-RA,0.17,VWS V14.01,2013-07-30 21:53:00,
2013-07-30 16:58:00,69.9,64.2,30.02,West,278,0.0,0.0,82,0.00,,-RA,0.17,VWS V14.01,2013-07-30 21:58:00,
2013-07-30 17:03:00,70.0,64.6,30.01,West,261,1.0,1.0,83,0.00,,-RA,0.17,VWS V14.01,2013-07-30 22:03:00,
2013-07-30 17:08:00,69.9,64.5,30.01,West,260,0.0,1.0,83,0.00,,-RA,0.17,VWS V14.01,2013-07-30 22:08:00,
2013-07-30 17:13:00,69.7,64.3,30.02,West,269,0.0,1.0,83,0.00,,-RA,0.17,VWS V14.01,2013-07-30 22:13:00,
2013-07-30 17:18:00,69.4,64.0,30.02,West,276,2.0,2.0,83,0.00,,-RA,0.17,VWS V14.01,2013-07-30 22:18:00,
2013-07-30 17:23:00,69.3,63.9,30.02,West,273,0.0,2.0,83,0.00,,-RA,0.17,VWS V14.01,2013-07-30 22:23:00,
2013-07-30 17:28:00,69.2,64.2,30.02,West,271,0.0,0.0,84,0.00,,-RA,0.17,VWS V14.01,2013-07-30 22:28:00,
2013-07-30 17:33:00,69.2,64.5,30.02,WNW,283,0.0,1.0,85,0.00,,OVC027,0.17,VWS V14.01,2013-07-30 22:33:00,
2013-07-30 17:38:00,69.2,64.8,30.02,NW,308,0.0,1.0,86,0.00,,OVC027,0.17,VWS V14.01,2013-07-30 22:38:00,
2013-07-30 17:43:00,69.1,64.7,30.02,NW,311,0.0,1.0,86,0.00,,OVC027,0.17,VWS V14.01,2013-07-30 22:43:00,
2013-07-30 17:48:00,69.0,64.6,30.02,NW,311,0.0,1.0,86,0.00,,OVC030,0.17,VWS V14.01,2013-07-30 22:48:00,
2013-07-30 17:53:00,68.8,64.4,30.02,NNW,341,0.0,1.0,86,0.00,,OVC022,0.17,VWS V14.01,2013-07-30 22:53:00,
2013-07-30 17:58:00,68.7,64.7,30.02,NNW,341,0.0,0.0,87,0.00,,OVC022,0.17,VWS V14.01,2013-07-30 22:58:00,
2013-07-30 18:03:00,68.6,64.6,30.02,NNW,341,0.0,0.0,87,0.00,,OVC022,0.17,VWS V14.01,2013-07-30 23:03:00,
2013-07-30 18:08:00,68.6,64.6,30.02,NNW,341,0.0,0.0,87,0.00,,OVC022,0.17,VWS V14.01,2013-07-30 23:08:00,
2013-07-30 18:13:00,68.6,64.6,30.02,NNW,341,0.0,0.0,87,0.00,,OVC022,0.17,VWS V14.01,2013-07-30 23:13:00,
2013-07-30 18:18:00,68.6,64.6,30.02,NNW,341,0.0,0.0,87,0.00,,OVC022,0.17,VWS V14.01,2013-07-30 23:18:00,
2013-07-30 18:23:00,68.6,64.6,30.02,NNW,342,0.0,0.0,87,0.00,,OVC022,0.17,VWS V14.01,2013-07-30 23:23:00,
2013-07-30 18:28:00,68.7,64.7,30.02,NNW,341,0.0,0.0,87,0.00,,OVC022,0.17,VWS V14.01,2013-07-30 23:28:00,
2013-07-30 18:33:00,68.6,64.2,30.02,NNW,341,0.0,0.0,86,0.00,,OVC033,0.17,VWS V14.01,2013-07-30 23:33:00,
2013-07-30 18:38:00,68.6,64.2,30.02,NNW,341,0.0,1.0,86,0.00,,OVC033,0.17,VWS V14.01,2013-07-30 23:38:00,
2013-07-30 18:43:00,68.5,64.2,30.02,NNW,341,0.0,1.0,86,0.00,,OVC033,0.17,VWS V14.01,2013-07-30 23:43:00,
2013-07-30 18:48:00,68.5,64.2,30.02,NNW,341,0.0,1.0,86,0.00,,OVC027,0.17,VWS V14.01,2013-07-30 23:48:00,
2013-07-30 18:53:00,68.6,64.6,30.02,NNW,341,0.0,1.0,87,0.00,,OVC033,0.17,VWS V14.01,2013-07-30 23:53:00,
2013-07-30 18:58:00,68.5,64.2,30.01,NNW,341,0.0,0.0,86,0.00,,OVC033,0.17,VWS V14.01,2013-07-30 23:58:00,
2013-07-30 19:03:00,68.4,64.1,30.01,NNW,342,0.0,0.0,86,0.00,,OVC033,0.17,VWS V14.01,2013-07-31 00:03:00,
2013-07-30 19:08:00,68.4,64.4,30.01,NNW,341,0.0,0.0,87,0.00,,OVC033,0.17,VWS V14.01,2013-07-31 00:08:00,
2013-07-30 19:13:00,68.5,64.5,30.01,NNW,341,0.0,0.0,87,0.00,,OVC033,0.17,VWS V14.01,2013-07-31 00:13:00,
2013-07-30 19:18:00,68.5,64.5,30.01,NNW,341,0.0,0.0,87,0.00,,OVC033,0.17,VWS V14.01,2013-07-31 00:18:00,
2013-07-30 19:23:00,68.4,64.4,30.01,NNW,342,0.0,0.0,87,0.00,,OVC033,0.17,VWS V14.01,2013-07-31 00:23:00,
2013-07-30 19:28:00,68.4,64.7,30.01,NNW,342,0.0,0.0,88,0.00,,OVC033,0.17,VWS V14.01,2013-07-31 00:28:00,
2013-07-30 19:33:00,68.4,64.7,30.02,NNW,341,0.0,0.0,88,0.00,,OVC035,0.17,VWS V14.01,2013-07-31 00:33:00,
2013-07-30 19:38:00,68.4,64.7,30.02,NNW,341,0.0,0.0,88,0.00,,OVC035,0.17,VWS V14.01,2013-07-31 00:38:00,
2013-07-30 19:43:00,68.3,64.6,30.01,NNW,341,0.0,0.0,88,0.00,,OVC035,0.17,VWS V14.01,2013-07-31 00:43:00,
2013-07-30 19:48:00,68.2,64.5,30.02,NNW,341,0.0,0.0,88,0.00,,OVC039,0.17,VWS V14.01,2013-07-31 00:48:00,
2013-07-30 19:53:00,68.1,64.4,30.02,NNW,341,0.0,0.0,88,0.00,,OVC039,0.17,VWS V14.01,2013-07-31 00:53:00,
2013-07-30 19:58:00,68.1,64.7,30.01,NNW,342,0.0,1.0,89,0.00,,OVC039,0.17,VWS V14.01,2013-07-31 00:58:00,
2013-07-30 20:03:00,68.1,64.7,30.01,NNW,341,0.0,1.0,89,0.00,,OVC039,0.17,VWS V14.01,2013-07-31 01:03:00,
2013-07-30 20:08:00,68.0,64.6,30.02,NNW,341,0.0,1.0,89,0.00,,OVC039,0.17,VWS V14.01,2013-07-31 01:08:00,
2013-07-30 20:13:00,67.9,64.9,30.02,West,278,0.0,1.0,90,0.00,,OVC039,0.17,VWS V14.01,2013-07-31 01:13:00,
2013-07-30 20:18:00,67.8,64.8,30.02,West,278,0.0,1.0,90,0.00,,OVC039,0.17,VWS V14.01,2013-07-31 01:18:00,
2013-07-30 20:23:00,67.7,65.0,30.01,West,278,0.0,1.0,91,0.00,,OVC039,0.17,VWS V14.01,2013-07-31 01:23:00,
2013-07-30 20:28:00,67.7,65.0,30.01,SW,236,0.0,0.0,91,0.00,,OVC039,0.17,VWS V14.01,2013-07-31 01:28:00,
2013-07-30 20:33:00,67.6,64.6,30.00,SW,215,0.0,1.0,90,0.00,,SCT041,0.17,VWS V14.01,2013-07-31 01:33:00,
2013-07-30 20:38:00,67.5,64.5,30.00,SW,214,1.0,1.0,90,0.00,,SCT041,0.17,VWS V14.01,2013-07-31 01:38:00,
2013-07-30 20:43:00,67.4,64.7,30.00,SW,214,0.0,1.0,91,0.00,,SCT041,0.17,VWS V14.01,2013-07-31 01:43:00,
2013-07-30 20:48:00,67.2,64.5,30.00,SW,215,0.0,1.0,91,0.00,,BKN041,0.17,VWS V14.01,2013-07-31 01:48:00,
2013-07-30 20:53:00,66.9,64.2,30.00,SW,215,0.0,1.0,91,0.00,,CLR,0.17,VWS V14.01,2013-07-31 01:53:00,
2013-07-30 20:58:00,66.7,64.3,30.00,SW,215,0.0,0.0,92,0.00,,CLR,0.17,VWS V14.01,2013-07-31 01:58:00,
2013-07-30 21:03:00,66.6,64.2,30.01,SW,215,0.0,1.0,92,0.00,,CLR,0.17,VWS V14.01,2013-07-31 02:03:00,
2013-07-30 21:08:00,66.4,64.0,30.01,SW,215,0.0,1.0,92,0.00,,CLR,0.17,VWS V14.01,2013-07-31 02:08:00,
2013-07-30 21:13:00,66.2,64.1,30.02,SW,214,0.0,1.0,93,0.00,,CLR,0.17,VWS V14.01,2013-07-31 02:13:00,
2013-07-30 21:18:00,66.0,63.9,30.01,SW,215,0.0,1.0,93,0.00,,CLR,0.17,VWS V14.01,2013-07-31 02:18:00,
2013-07-30 21:23:00,65.8,63.7,30.01,SW,214,0.0,1.0,93,0.00,,CLR,0.17,VWS V14.01,2013-07-31 02:23:00,
2013-07-30 21:28:00,65.7,63.9,30.00,SW,215,0.0,0.0,94,0.00,,CLR,0.17,VWS V14.01,2013-07-31 02:28:00,
2013-07-30 21:33:00,65.7,63.9,30.00,SW,214,0.0,0.0,94,0.00,,CLR,0.17,VWS V14.01,2013-07-31 02:33:00,
2013-07-30 21:38:00,65.7,63.9,30.00,SE,125,0.0,1.0,94,0.00,,CLR,0.17,VWS V14.01,2013-07-31 02:38:00,
2013-07-30 21:43:00,65.7,63.9,30.00,SSE,166,0.0,1.0,94,0.00,,CLR,0.17,VWS V14.01,2013-07-31 02:43:00,
2013-07-30 21:48:00,65.7,63.9,30.00,SSE,165,0.0,1.0,94,0.00,,CLR,0.17,VWS V14.01,2013-07-31 02:48:00,
2013-07-30 21:53:00,65.5,63.7,30.00,ESE,108,0.0,1.0,94,0.00,,CLR,0.17,VWS V14.01,2013-07-31 02:53:00,
2013-07-30 21:58:00,65.2,63.4,30.01,ESE,109,0.0,0.0,94,0.00,,CLR,0.17,VWS V14.01,2013-07-31 02:58:00,
2013-07-30 22:03:00,65.1,63.3,30.02,ESE,108,0.0,0.0,94,0.00,,CLR,0.17,VWS V14.01,2013-07-31 03:03:00,
2013-07-30 22:08:00,64.9,63.1,30.02,ESE,109,0.0,0.0,94,0.00,,CLR,0.17,VWS V14.01,2013-07-31 03:08:00,
2013-07-30 22:13:00,64.8,63.3,30.02,ESE,108,0.0,0.0,95,0.00,,CLR,0.17,VWS V14.01,2013-07-31 03:13:00,
2013-07-30 22:17:00,64.7,63.2,30.03,ESE,108,0.0,0.0,95,0.00,,CLR,0.17,VWS V14.01,2013-07-31 03:17:00,
2013-07-30 22:22:00,64.6,63.1,30.02,ESE,108,1.0,1.0,95,0.00,,CLR,0.17,VWS V14.01,2013-07-31 03:22:00,
2013-07-30 22:28:00,64.7,63.5,30.02,ESE,110,0.0,0.0,96,0.00,,CLR,0.17,VWS V14.01,2013-07-31 03:28:00,
2013-07-30 22:33:00,64.6,63.1,30.02,ESE,110,0.0,0.0,95,0.00,,CLR,0.17,VWS V14.01,2013-07-31 03:33:00,
2013-07-30 22:38:00,64.4,63.2,30.02,ESE,110,0.0,0.0,96,0.00,,CLR,0.17,VWS V14.01,2013-07-31 03:38:00,
2013-07-30 22:43:00,64.4,63.2,30.01,ESE,110,0.0,0.0,96,0.00,,CLR,0.17,VWS V14.01,2013-07-31 03:43:00,
2013-07-30 22:48:00,64.1,62.6,30.01,ESE,110,0.0,0.0,95,0.00,,CLR,0.17,VWS V14.01,2013-07-31 03:48:00,
2013-07-30 22:53:00,64.0,62.8,30.02,ESE,110,0.0,1.0,96,0.00,,CLR,0.17,VWS V14.01,2013-07-31 03:53:00,
2013-07-30 22:58:00,64.1,62.9,30.02,ESE,110,0.0,0.0,96,0.00,,CLR,0.17,VWS V14.01,2013-07-31 03:58:00,
2013-07-30 23:01:00,64.1,62.9,30.02,WSW,253,1.0,1.0,96,0.00,,CLR,0.17,VWS V14.01,2013-07-31 04:01:00,
2013-07-30 23:02:00,64.1,62.9,30.02,WSW,253,1.0,1.0,96,0.00,,CLR,0.17,VWS V14.01,2013-07-31 04:02:00,
2013-07-30 23:07:00,64.1,62.9,30.02,West,277,1.0,1.0,96,0.00,,CLR,0.17,VWS V14.01,2013-07-31 04:07:00,
2013-07-30 23:12:00,64.1,62.9,30.02,West,275,1.0,2.0,96,0.00,,CLR,0.17,VWS V14.01,2013-07-31 04:12:00,
2013-07-30 23:17:00,64.0,62.8,30.01,West,276,0.0,2.0,96,0.00,,CLR,0.17,VWS V14.01,2013-07-31 04:17:00,
2013-07-30 23:22:00,63.9,62.7,30.02,West,276,0.0,2.0,96,0.00,,CLR,0.17,VWS V14.01,2013-07-31 04:22:00,
2013-07-30 23:27:00,63.8,62.6,30.01,West,276,0.0,2.0,96,0.00,,CLR,0.17,VWS V14.01,2013-07-31 04:27:00,
2013-07-30 23:32:00,63.6,62.4,30.01,West,275,0.0,0.0,96,0.00,,,0.17,VWS V14.01,2013-07-31 04:32:00,
2013-07-30 23:37:00,63.2,62.0,30.01,West,275,0.0,0.0,96,0.00,,,0.17,VWS V14.01,2013-07-31 04:37:00,
2013-07-30 23:42:00,62.8,61.7,30.01,West,276,0.0,0.0,96,0.00,,,0.17,VWS V14.01,2013-07-31 04:42:00,
2013-07-30 23:47:00,63.0,62.1,30.01,West,276,0.0,0.0,97,0.00,,,0.17,VWS V14.01,2013-07-31 04:47:00,
2013-07-30 23:52:00,63.2,62.3,30.01,West,276,0.0,0.0,97,0.00,,,0.17,VWS V14.01,2013-07-31 04:52:00,
2013-07-30 23:57:00,63.1,62.2,30.00,West,275,0.0,0.0,97,0.00,,,0.17,VWS V14.01,2013-07-31 04:57:00,